sensor_id;sensor_type;location;lat;lon;timestamp;P1;durP1;ratioP1;P2;durP2;ratioP2
5730;SDS011;2890;51.950;7.668;2024-02-14T00:02:21;5.10;;;4.70;;
5730;SDS011;2890;51.950;7.668;2024-02-14T00:04:47;5.50;;;4.77;;
5730;SDS011;2890;51.950;7.668;2024-02-14T00:07:14;7.83;;;4.80;;
5730;SDS011;2890;51.950;7.668;2024-02-14T00:09:40;4.20;;;3.90;;
5730;SDS011;2890;51.950;7.668;2024-02-14T00:12:07;6.10;;;4.63;;
5730;SDS011;2890;51.950;7.668;2024-02-14T00:14:33;5.10;;;4.70;;
5730;SDS011;2890;51.950;7.668;2024-02-14T00:17:00;6.60;;;3.87;;
5730;SDS011;2890;51.950;7.668;2024-02-14T00:19:28;5.73;;;4.20;;
5730;SDS011;2890;51.950;7.668;2024-02-14T00:21:54;5.93;;;4.73;;
5730;SDS011;2890;51.950;7.668;2024-02-14T00:24:21;4.30;;;4.00;;
5730;SDS011;2890;51.950;7.668;2024-02-14T00:26:48;5.37;;;4.60;;
5730;SDS011;2890;51.950;7.668;2024-02-14T00:29:15;4.23;;;3.87;;
5730;SDS011;2890;51.950;7.668;2024-02-14T00:31:42;10.43;;;5.27;;
5730;SDS011;2890;51.950;7.668;2024-02-14T00:34:09;4.97;;;4.30;;
5730;SDS011;2890;51.950;7.668;2024-02-14T00:36:37;5.10;;;4.60;;
5730;SDS011;2890;51.950;7.668;2024-02-14T00:39:03;5.07;;;4.63;;
5730;SDS011;2890;51.950;7.668;2024-02-14T00:41:33;6.63;;;4.93;;
5730;SDS011;2890;51.950;7.668;2024-02-14T00:44:00;5.73;;;4.43;;
5730;SDS011;2890;51.950;7.668;2024-02-14T00:46:28;4.70;;;4.30;;
5730;SDS011;2890;51.950;7.668;2024-02-14T00:48:54;5.03;;;4.63;;
5730;SDS011;2890;51.950;7.668;2024-02-14T00:51:21;5.43;;;5.03;;
5730;SDS011;2890;51.950;7.668;2024-02-14T00:53:49;5.40;;;4.90;;
5730;SDS011;2890;51.950;7.668;2024-02-14T00:56:15;6.60;;;5.10;;
5730;SDS011;2890;51.950;7.668;2024-02-14T00:58:42;5.30;;;4.80;;
5730;SDS011;2890;51.950;7.668;2024-02-14T01:01:09;5.73;;;5.23;;
5730;SDS011;2890;51.950;7.668;2024-02-14T01:03:37;5.97;;;5.27;;
5730;SDS011;2890;51.950;7.668;2024-02-14T01:06:03;6.10;;;5.50;;
5730;SDS011;2890;51.950;7.668;2024-02-14T01:08:30;7.33;;;6.40;;
5730;SDS011;2890;51.950;7.668;2024-02-14T01:10:58;6.80;;;6.30;;
5730;SDS011;2890;51.950;7.668;2024-02-14T01:13:25;7.17;;;6.07;;
5730;SDS011;2890;51.950;7.668;2024-02-14T01:15:51;8.43;;;5.40;;
5730;SDS011;2890;51.950;7.668;2024-02-14T01:18:18;6.90;;;6.30;;
5730;SDS011;2890;51.950;7.668;2024-02-14T01:20:44;7.67;;;6.70;;
5730;SDS011;2890;51.950;7.668;2024-02-14T01:23:11;6.43;;;5.83;;
5730;SDS011;2890;51.950;7.668;2024-02-14T01:25:37;7.13;;;6.40;;
5730;SDS011;2890;51.950;7.668;2024-02-14T01:28:05;8.40;;;6.13;;
5730;SDS011;2890;51.950;7.668;2024-02-14T01:30:33;6.57;;;6.07;;
5730;SDS011;2890;51.950;7.668;2024-02-14T01:33:01;6.20;;;5.70;;
5730;SDS011;2890;51.950;7.668;2024-02-14T01:35:28;6.33;;;5.83;;
5730;SDS011;2890;51.950;7.668;2024-02-14T01:37:55;8.37;;;6.00;;
5730;SDS011;2890;51.950;7.668;2024-02-14T01:40:22;8.87;;;5.93;;
5730;SDS011;2890;51.950;7.668;2024-02-14T01:42:49;6.67;;;6.03;;
5730;SDS011;2890;51.950;7.668;2024-02-14T01:45:18;6.00;;;5.50;;
5730;SDS011;2890;51.950;7.668;2024-02-14T01:47:45;10.33;;;5.80;;
5730;SDS011;2890;51.950;7.668;2024-02-14T01:50:11;9.83;;;6.00;;
5730;SDS011;2890;51.950;7.668;2024-02-14T01:52:38;5.60;;;4.50;;
5730;SDS011;2890;51.950;7.668;2024-02-14T01:55:05;11.33;;;6.07;;
5730;SDS011;2890;51.950;7.668;2024-02-14T01:57:32;7.20;;;6.00;;
5730;SDS011;2890;51.950;7.668;2024-02-14T01:59:59;7.17;;;5.30;;
5730;SDS011;2890;51.950;7.668;2024-02-14T02:02:30;6.13;;;5.23;;
5730;SDS011;2890;51.950;7.668;2024-02-14T02:04:57;7.57;;;5.60;;
5730;SDS011;2890;51.950;7.668;2024-02-14T02:07:23;6.77;;;6.27;;
5730;SDS011;2890;51.950;7.668;2024-02-14T02:09:50;6.70;;;5.20;;
5730;SDS011;2890;51.950;7.668;2024-02-14T02:12:17;6.00;;;5.20;;
5730;SDS011;2890;51.950;7.668;2024-02-14T02:14:43;6.03;;;5.03;;
5730;SDS011;2890;51.950;7.668;2024-02-14T02:17:10;6.13;;;4.90;;
5730;SDS011;2890;51.950;7.668;2024-02-14T02:19:38;6.03;;;4.97;;
5730;SDS011;2890;51.950;7.668;2024-02-14T02:22:05;5.60;;;5.10;;
5730;SDS011;2890;51.950;7.668;2024-02-14T02:24:34;5.87;;;4.73;;
5730;SDS011;2890;51.950;7.668;2024-02-14T02:27:01;10.40;;;5.40;;
5730;SDS011;2890;51.950;7.668;2024-02-14T02:29:28;5.97;;;5.37;;
5730;SDS011;2890;51.950;7.668;2024-02-14T02:31:56;7.80;;;4.97;;
5730;SDS011;2890;51.950;7.668;2024-02-14T02:34:22;5.13;;;4.80;;
5730;SDS011;2890;51.950;7.668;2024-02-14T02:36:49;8.43;;;4.63;;
5730;SDS011;2890;51.950;7.668;2024-02-14T02:39:16;5.77;;;4.83;;
5730;SDS011;2890;51.950;7.668;2024-02-14T02:41:44;5.13;;;4.20;;
5730;SDS011;2890;51.950;7.668;2024-02-14T02:44:10;5.20;;;4.70;;
5730;SDS011;2890;51.950;7.668;2024-02-14T02:46:37;6.60;;;4.83;;
5730;SDS011;2890;51.950;7.668;2024-02-14T02:49:03;6.47;;;4.67;;
5730;SDS011;2890;51.950;7.668;2024-02-14T02:51:30;5.07;;;4.50;;
5730;SDS011;2890;51.950;7.668;2024-02-14T02:53:56;6.40;;;6.00;;
5730;SDS011;2890;51.950;7.668;2024-02-14T02:56:23;5.40;;;5.00;;
5730;SDS011;2890;51.950;7.668;2024-02-14T02:58:53;8.13;;;5.50;;
5730;SDS011;2890;51.950;7.668;2024-02-14T03:01:20;5.13;;;4.73;;
5730;SDS011;2890;51.950;7.668;2024-02-14T03:03:49;9.00;;;6.27;;
5730;SDS011;2890;51.950;7.668;2024-02-14T03:06:15;7.17;;;5.87;;
5730;SDS011;2890;51.950;7.668;2024-02-14T03:08:42;9.80;;;6.00;;
5730;SDS011;2890;51.950;7.668;2024-02-14T03:11:08;5.73;;;5.27;;
5730;SDS011;2890;51.950;7.668;2024-02-14T03:13:35;5.63;;;5.03;;
5730;SDS011;2890;51.950;7.668;2024-02-14T03:16:05;8.23;;;6.50;;
5730;SDS011;2890;51.950;7.668;2024-02-14T03:18:32;5.70;;;5.20;;
5730;SDS011;2890;51.950;7.668;2024-02-14T03:20:59;6.10;;;5.50;;
5730;SDS011;2890;51.950;7.668;2024-02-14T03:23:25;8.57;;;5.57;;
5730;SDS011;2890;51.950;7.668;2024-02-14T03:25:52;6.43;;;5.83;;
5730;SDS011;2890;51.950;7.668;2024-02-14T03:28:19;5.70;;;5.13;;
5730;SDS011;2890;51.950;7.668;2024-02-14T03:30:45;6.40;;;5.50;;
5730;SDS011;2890;51.950;7.668;2024-02-14T03:33:13;5.93;;;5.43;;
5730;SDS011;2890;51.950;7.668;2024-02-14T03:35:40;6.83;;;6.23;;
5730;SDS011;2890;51.950;7.668;2024-02-14T03:38:07;6.40;;;5.90;;
5730;SDS011;2890;51.950;7.668;2024-02-14T03:40:35;7.13;;;5.87;;
5730;SDS011;2890;51.950;7.668;2024-02-14T03:43:03;6.50;;;5.00;;
5730;SDS011;2890;51.950;7.668;2024-02-14T03:45:30;5.73;;;5.27;;
5730;SDS011;2890;51.950;7.668;2024-02-14T03:47:56;7.23;;;5.83;;
5730;SDS011;2890;51.950;7.668;2024-02-14T03:50:24;8.03;;;5.83;;
5730;SDS011;2890;51.950;7.668;2024-02-14T03:52:50;11.93;;;6.13;;
5730;SDS011;2890;51.950;7.668;2024-02-14T03:55:17;6.10;;;5.53;;
5730;SDS011;2890;51.950;7.668;2024-02-14T03:57:44;6.17;;;5.67;;
5730;SDS011;2890;51.950;7.668;2024-02-14T04:00:12;6.57;;;5.97;;
5730;SDS011;2890;51.950;7.668;2024-02-14T04:02:39;7.03;;;6.43;;
5730;SDS011;2890;51.950;7.668;2024-02-14T04:05:06;6.10;;;5.70;;
5730;SDS011;2890;51.950;7.668;2024-02-14T04:07:34;6.77;;;6.17;;
5730;SDS011;2890;51.950;7.668;2024-02-14T04:10:01;6.90;;;6.40;;
5730;SDS011;2890;51.950;7.668;2024-02-14T04:12:28;6.77;;;6.03;;
5730;SDS011;2890;51.950;7.668;2024-02-14T04:14:54;6.43;;;5.80;;
5730;SDS011;2890;51.950;7.668;2024-02-14T04:17:21;6.07;;;5.57;;
5730;SDS011;2890;51.950;7.668;2024-02-14T04:19:49;8.00;;;6.03;;
5730;SDS011;2890;51.950;7.668;2024-02-14T04:22:15;6.93;;;6.40;;
5730;SDS011;2890;51.950;7.668;2024-02-14T04:24:43;7.77;;;7.03;;
5730;SDS011;2890;51.950;7.668;2024-02-14T04:27:09;12.00;;;7.63;;
5730;SDS011;2890;51.950;7.668;2024-02-14T04:29:36;8.27;;;7.00;;
5730;SDS011;2890;51.950;7.668;2024-02-14T04:32:02;8.50;;;7.70;;
5730;SDS011;2890;51.950;7.668;2024-02-14T04:34:29;9.47;;;7.53;;
5730;SDS011;2890;51.950;7.668;2024-02-14T04:36:56;10.77;;;7.87;;
5730;SDS011;2890;51.950;7.668;2024-02-14T04:39:22;9.40;;;8.47;;
5730;SDS011;2890;51.950;7.668;2024-02-14T04:41:51;8.90;;;8.20;;
5730;SDS011;2890;51.950;7.668;2024-02-14T04:44:19;9.47;;;8.57;;
5730;SDS011;2890;51.950;7.668;2024-02-14T04:46:45;9.40;;;8.40;;
5730;SDS011;2890;51.950;7.668;2024-02-14T04:49:12;13.27;;;10.00;;
5730;SDS011;2890;51.950;7.668;2024-02-14T04:51:39;10.97;;;9.80;;
5730;SDS011;2890;51.950;7.668;2024-02-14T04:54:06;15.23;;;10.10;;
5730;SDS011;2890;51.950;7.668;2024-02-14T04:56:33;11.33;;;10.33;;
5730;SDS011;2890;51.950;7.668;2024-02-14T04:59:01;11.33;;;10.27;;
5730;SDS011;2890;51.950;7.668;2024-02-14T05:01:28;12.23;;;11.03;;
5730;SDS011;2890;51.950;7.668;2024-02-14T05:03:54;12.50;;;11.20;;
5730;SDS011;2890;51.950;7.668;2024-02-14T05:06:20;12.03;;;10.83;;
5730;SDS011;2890;51.950;7.668;2024-02-14T05:08:47;13.50;;;12.23;;
5730;SDS011;2890;51.950;7.668;2024-02-14T05:11:13;16.27;;;14.23;;
5730;SDS011;2890;51.950;7.668;2024-02-14T05:13:40;16.60;;;14.37;;
5730;SDS011;2890;51.950;7.668;2024-02-14T05:16:08;18.33;;;15.07;;
5730;SDS011;2890;51.950;7.668;2024-02-14T05:18:35;19.37;;;14.90;;
5730;SDS011;2890;51.950;7.668;2024-02-14T05:21:04;20.43;;;14.93;;
5730;SDS011;2890;51.950;7.668;2024-02-14T05:23:31;27.10;;;17.10;;
5730;SDS011;2890;51.950;7.668;2024-02-14T05:25:58;18.40;;;15.47;;
5730;SDS011;2890;51.950;7.668;2024-02-14T05:28:24;19.80;;;16.40;;
5730;SDS011;2890;51.950;7.668;2024-02-14T05:30:51;22.73;;;17.40;;
5730;SDS011;2890;51.950;7.668;2024-02-14T05:33:19;21.93;;;17.40;;
5730;SDS011;2890;51.950;7.668;2024-02-14T05:35:47;22.27;;;16.40;;
5730;SDS011;2890;51.950;7.668;2024-02-14T05:38:13;22.40;;;17.60;;
5730;SDS011;2890;51.950;7.668;2024-02-14T05:40:40;23.50;;;16.63;;
5730;SDS011;2890;51.950;7.668;2024-02-14T05:43:08;21.10;;;17.43;;
5730;SDS011;2890;51.950;7.668;2024-02-14T05:45:35;22.07;;;16.97;;
5730;SDS011;2890;51.950;7.668;2024-02-14T05:48:02;23.23;;;16.47;;
5730;SDS011;2890;51.950;7.668;2024-02-14T05:50:30;22.20;;;17.03;;
5730;SDS011;2890;51.950;7.668;2024-02-14T05:52:56;27.10;;;17.50;;
5730;SDS011;2890;51.950;7.668;2024-02-14T05:55:23;26.93;;;17.27;;
5730;SDS011;2890;51.950;7.668;2024-02-14T05:57:49;25.60;;;17.40;;
5730;SDS011;2890;51.950;7.668;2024-02-14T06:00:16;32.63;;;17.40;;
5730;SDS011;2890;51.950;7.668;2024-02-14T06:02:43;26.70;;;19.30;;
5730;SDS011;2890;51.950;7.668;2024-02-14T06:05:10;25.80;;;19.00;;
5730;SDS011;2890;51.950;7.668;2024-02-14T06:07:38;32.60;;;20.93;;
5730;SDS011;2890;51.950;7.668;2024-02-14T06:10:11;27.43;;;18.20;;
5730;SDS011;2890;51.950;7.668;2024-02-14T06:12:40;32.50;;;20.13;;
5730;SDS011;2890;51.950;7.668;2024-02-14T06:15:08;30.03;;;19.70;;
5730;SDS011;2890;51.950;7.668;2024-02-14T06:17:35;30.57;;;20.60;;
5730;SDS011;2890;51.950;7.668;2024-02-14T06:20:01;29.20;;;19.90;;
5730;SDS011;2890;51.950;7.668;2024-02-14T06:22:30;32.10;;;20.53;;
5730;SDS011;2890;51.950;7.668;2024-02-14T06:24:59;33.23;;;21.67;;
5730;SDS011;2890;51.950;7.668;2024-02-14T06:27:25;37.10;;;22.13;;
5730;SDS011;2890;51.950;7.668;2024-02-14T06:29:52;37.53;;;23.60;;
5730;SDS011;2890;51.950;7.668;2024-02-14T06:32:19;39.13;;;22.73;;
5730;SDS011;2890;51.950;7.668;2024-02-14T06:34:46;39.80;;;23.10;;
5730;SDS011;2890;51.950;7.668;2024-02-14T06:37:12;35.43;;;23.33;;
5730;SDS011;2890;51.950;7.668;2024-02-14T06:39:39;38.23;;;25.17;;
5730;SDS011;2890;51.950;7.668;2024-02-14T06:42:07;32.97;;;24.27;;
5730;SDS011;2890;51.950;7.668;2024-02-14T06:44:33;40.70;;;25.40;;
5730;SDS011;2890;51.950;7.668;2024-02-14T06:47:00;37.17;;;24.93;;
5730;SDS011;2890;51.950;7.668;2024-02-14T06:49:26;39.33;;;25.40;;
5730;SDS011;2890;51.950;7.668;2024-02-14T06:51:53;41.73;;;27.90;;
5730;SDS011;2890;51.950;7.668;2024-02-14T06:54:19;39.63;;;27.00;;
5730;SDS011;2890;51.950;7.668;2024-02-14T06:56:46;39.70;;;27.00;;
5730;SDS011;2890;51.950;7.668;2024-02-14T06:59:14;39.97;;;27.30;;
5730;SDS011;2890;51.950;7.668;2024-02-14T07:01:41;40.27;;;28.07;;
5730;SDS011;2890;51.950;7.668;2024-02-14T07:04:07;43.93;;;28.70;;
5730;SDS011;2890;51.950;7.668;2024-02-14T07:06:34;40.50;;;28.50;;
5730;SDS011;2890;51.950;7.668;2024-02-14T07:09:00;46.30;;;27.97;;
5730;SDS011;2890;51.950;7.668;2024-02-14T07:11:27;51.30;;;29.10;;
5730;SDS011;2890;51.950;7.668;2024-02-14T07:13:53;42.20;;;29.27;;
5730;SDS011;2890;51.950;7.668;2024-02-14T07:16:21;41.37;;;28.73;;
5730;SDS011;2890;51.950;7.668;2024-02-14T07:18:48;45.07;;;28.80;;
5730;SDS011;2890;51.950;7.668;2024-02-14T07:21:15;46.87;;;29.03;;
5730;SDS011;2890;51.950;7.668;2024-02-14T07:23:42;45.67;;;28.80;;
5730;SDS011;2890;51.950;7.668;2024-02-14T07:26:08;44.37;;;29.23;;
5730;SDS011;2890;51.950;7.668;2024-02-14T07:28:35;41.07;;;28.33;;
5730;SDS011;2890;51.950;7.668;2024-02-14T07:31:01;42.40;;;28.77;;
5730;SDS011;2890;51.950;7.668;2024-02-14T07:33:28;40.10;;;27.00;;
5730;SDS011;2890;51.950;7.668;2024-02-14T07:35:54;42.77;;;29.70;;
5730;SDS011;2890;51.950;7.668;2024-02-14T07:38:21;35.40;;;27.10;;
5730;SDS011;2890;51.950;7.668;2024-02-14T07:40:48;39.33;;;28.60;;
5730;SDS011;2890;51.950;7.668;2024-02-14T07:43:14;37.90;;;28.50;;
5730;SDS011;2890;51.950;7.668;2024-02-14T07:45:41;37.70;;;27.00;;
5730;SDS011;2890;51.950;7.668;2024-02-14T07:48:07;42.73;;;29.90;;
5730;SDS011;2890;51.950;7.668;2024-02-14T07:50:35;45.23;;;28.57;;
5730;SDS011;2890;51.950;7.668;2024-02-14T07:53:02;35.90;;;26.87;;
5730;SDS011;2890;51.950;7.668;2024-02-14T07:55:29;46.67;;;30.40;;
5730;SDS011;2890;51.950;7.668;2024-02-14T07:57:55;42.90;;;28.67;;
5730;SDS011;2890;51.950;7.668;2024-02-14T08:00:22;46.77;;;30.27;;
5730;SDS011;2890;51.950;7.668;2024-02-14T08:02:48;39.30;;;28.90;;
5730;SDS011;2890;51.950;7.668;2024-02-14T08:05:15;42.90;;;31.47;;
5730;SDS011;2890;51.950;7.668;2024-02-14T08:07:43;43.30;;;29.53;;
5730;SDS011;2890;51.950;7.668;2024-02-14T08:10:12;42.77;;;31.83;;
5730;SDS011;2890;51.950;7.668;2024-02-14T08:12:38;47.20;;;32.10;;
5730;SDS011;2890;51.950;7.668;2024-02-14T08:15:05;47.03;;;31.40;;
5730;SDS011;2890;51.950;7.668;2024-02-14T08:17:32;46.63;;;28.77;;
5730;SDS011;2890;51.950;7.668;2024-02-14T08:20:00;40.53;;;29.50;;
5730;SDS011;2890;51.950;7.668;2024-02-14T08:22:29;49.33;;;30.27;;
5730;SDS011;2890;51.950;7.668;2024-02-14T08:24:56;47.90;;;32.30;;
5730;SDS011;2890;51.950;7.668;2024-02-14T08:27:23;47.97;;;30.20;;
5730;SDS011;2890;51.950;7.668;2024-02-14T08:29:50;43.40;;;30.13;;
5730;SDS011;2890;51.950;7.668;2024-02-14T08:32:17;46.63;;;30.37;;
5730;SDS011;2890;51.950;7.668;2024-02-14T08:34:43;41.97;;;29.63;;
5730;SDS011;2890;51.950;7.668;2024-02-14T08:37:10;47.63;;;29.47;;
5730;SDS011;2890;51.950;7.668;2024-02-14T08:39:36;43.40;;;29.40;;
5730;SDS011;2890;51.950;7.668;2024-02-14T08:42:04;41.80;;;28.57;;
5730;SDS011;2890;51.950;7.668;2024-02-14T08:44:32;45.50;;;29.90;;
5730;SDS011;2890;51.950;7.668;2024-02-14T08:46:59;44.50;;;29.90;;
5730;SDS011;2890;51.950;7.668;2024-02-14T08:49:25;42.80;;;29.27;;
5730;SDS011;2890;51.950;7.668;2024-02-14T08:51:52;43.90;;;29.20;;
5730;SDS011;2890;51.950;7.668;2024-02-14T08:54:19;41.33;;;29.63;;
5730;SDS011;2890;51.950;7.668;2024-02-14T08:56:46;40.57;;;29.77;;
5730;SDS011;2890;51.950;7.668;2024-02-14T08:59:15;47.17;;;31.27;;
5730;SDS011;2890;51.950;7.668;2024-02-14T09:01:41;49.10;;;30.73;;
5730;SDS011;2890;51.950;7.668;2024-02-14T09:04:08;49.00;;;30.33;;
5730;SDS011;2890;51.950;7.668;2024-02-14T09:06:34;51.93;;;31.53;;
5730;SDS011;2890;51.950;7.668;2024-02-14T09:09:02;52.57;;;32.00;;
5730;SDS011;2890;51.950;7.668;2024-02-14T09:11:28;50.50;;;32.00;;
5730;SDS011;2890;51.950;7.668;2024-02-14T09:13:56;49.90;;;33.00;;
5730;SDS011;2890;51.950;7.668;2024-02-14T09:16:30;54.10;;;32.37;;
5730;SDS011;2890;51.950;7.668;2024-02-14T09:18:58;48.87;;;31.33;;
5730;SDS011;2890;51.950;7.668;2024-02-14T09:21:27;46.80;;;31.70;;
5730;SDS011;2890;51.950;7.668;2024-02-14T09:23:53;51.63;;;32.83;;
5730;SDS011;2890;51.950;7.668;2024-02-14T09:26:20;53.53;;;32.40;;
5730;SDS011;2890;51.950;7.668;2024-02-14T09:28:47;54.20;;;32.70;;
5730;SDS011;2890;51.950;7.668;2024-02-14T09:31:17;44.70;;;30.37;;
5730;SDS011;2890;51.950;7.668;2024-02-14T09:33:46;45.83;;;30.37;;
5730;SDS011;2890;51.950;7.668;2024-02-14T09:36:13;46.57;;;30.30;;
5730;SDS011;2890;51.950;7.668;2024-02-14T09:38:40;51.90;;;30.97;;
5730;SDS011;2890;51.950;7.668;2024-02-14T09:41:09;50.60;;;31.60;;
5730;SDS011;2890;51.950;7.668;2024-02-14T09:43:38;44.87;;;30.67;;
5730;SDS011;2890;51.950;7.668;2024-02-14T09:46:06;52.67;;;32.63;;
5730;SDS011;2890;51.950;7.668;2024-02-14T09:48:33;50.73;;;30.90;;
5730;SDS011;2890;51.950;7.668;2024-02-14T09:51:02;48.03;;;32.10;;
5730;SDS011;2890;51.950;7.668;2024-02-14T09:53:28;48.33;;;34.80;;
5730;SDS011;2890;51.950;7.668;2024-02-14T09:55:55;50.53;;;32.03;;
5730;SDS011;2890;51.950;7.668;2024-02-14T09:58:22;50.83;;;35.10;;
5730;SDS011;2890;51.950;7.668;2024-02-14T10:00:49;57.40;;;33.80;;
5730;SDS011;2890;51.950;7.668;2024-02-14T10:03:16;47.33;;;34.40;;
5730;SDS011;2890;51.950;7.668;2024-02-14T10:05:43;51.90;;;34.27;;
5730;SDS011;2890;51.950;7.668;2024-02-14T10:08:12;52.77;;;32.80;;
5730;SDS011;2890;51.950;7.668;2024-02-14T10:10:39;46.43;;;34.40;;
5730;SDS011;2890;51.950;7.668;2024-02-14T10:13:05;46.40;;;33.00;;
5730;SDS011;2890;51.950;7.668;2024-02-14T10:15:32;50.73;;;33.43;;
5730;SDS011;2890;51.950;7.668;2024-02-14T10:17:59;49.10;;;33.13;;
5730;SDS011;2890;51.950;7.668;2024-02-14T10:20:25;47.57;;;33.70;;
5730;SDS011;2890;51.950;7.668;2024-02-14T10:22:59;49.07;;;33.07;;
5730;SDS011;2890;51.950;7.668;2024-02-14T10:25:27;45.60;;;32.63;;
5730;SDS011;2890;51.950;7.668;2024-02-14T10:27:54;44.93;;;32.23;;
5730;SDS011;2890;51.950;7.668;2024-02-14T10:30:20;51.63;;;32.03;;
5730;SDS011;2890;51.950;7.668;2024-02-14T10:32:47;45.93;;;32.50;;
5730;SDS011;2890;51.950;7.668;2024-02-14T10:35:14;41.67;;;30.77;;
5730;SDS011;2890;51.950;7.668;2024-02-14T10:37:43;54.57;;;33.77;;
5730;SDS011;2890;51.950;7.668;2024-02-14T10:40:10;47.40;;;32.87;;
5730;SDS011;2890;51.950;7.668;2024-02-14T10:42:38;46.60;;;31.07;;
5730;SDS011;2890;51.950;7.668;2024-02-14T10:45:05;62.80;;;29.03;;
5730;SDS011;2890;51.950;7.668;2024-02-14T10:47:34;40.83;;;29.07;;
5730;SDS011;2890;51.950;7.668;2024-02-14T10:50:03;34.90;;;27.00;;
5730;SDS011;2890;51.950;7.668;2024-02-14T10:52:32;37.83;;;27.30;;
5730;SDS011;2890;51.950;7.668;2024-02-14T10:55:01;33.73;;;26.13;;
5730;SDS011;2890;51.950;7.668;2024-02-14T10:57:28;36.00;;;25.50;;
5730;SDS011;2890;51.950;7.668;2024-02-14T10:59:59;29.10;;;24.80;;
5730;SDS011;2890;51.950;7.668;2024-02-14T11:02:27;27.03;;;21.93;;
5730;SDS011;2890;51.950;7.668;2024-02-14T11:04:55;27.30;;;21.60;;
5730;SDS011;2890;51.950;7.668;2024-02-14T11:07:21;26.70;;;21.83;;
5730;SDS011;2890;51.950;7.668;2024-02-14T11:09:59;26.10;;;21.50;;
5730;SDS011;2890;51.950;7.668;2024-02-14T11:12:27;28.97;;;22.23;;
5730;SDS011;2890;51.950;7.668;2024-02-14T11:14:57;29.43;;;23.90;;
5730;SDS011;2890;51.950;7.668;2024-02-14T11:17:26;30.80;;;24.30;;
5730;SDS011;2890;51.950;7.668;2024-02-14T11:19:52;29.67;;;22.80;;
5730;SDS011;2890;51.950;7.668;2024-02-14T11:22:19;29.27;;;24.00;;
5730;SDS011;2890;51.950;7.668;2024-02-14T11:24:46;30.40;;;22.60;;
5730;SDS011;2890;51.950;7.668;2024-02-14T11:27:13;28.93;;;21.70;;
5730;SDS011;2890;51.950;7.668;2024-02-14T11:29:40;28.10;;;21.30;;
5730;SDS011;2890;51.950;7.668;2024-02-14T11:32:18;26.13;;;22.23;;
5730;SDS011;2890;51.950;7.668;2024-02-14T11:34:51;26.07;;;22.87;;
5730;SDS011;2890;51.950;7.668;2024-02-14T11:37:19;31.43;;;22.93;;
5730;SDS011;2890;51.950;7.668;2024-02-14T11:39:48;28.97;;;23.93;;
5730;SDS011;2890;51.950;7.668;2024-02-14T11:42:15;29.10;;;24.03;;
5730;SDS011;2890;51.950;7.668;2024-02-14T11:44:41;35.63;;;26.60;;
5730;SDS011;2890;51.950;7.668;2024-02-14T11:47:08;30.13;;;24.43;;
5730;SDS011;2890;51.950;7.668;2024-02-14T11:49:36;30.40;;;25.33;;
5730;SDS011;2890;51.950;7.668;2024-02-14T11:52:04;30.30;;;24.07;;
5730;SDS011;2890;51.950;7.668;2024-02-14T11:54:30;30.50;;;24.90;;
5730;SDS011;2890;51.950;7.668;2024-02-14T11:56:58;31.60;;;25.00;;
5730;SDS011;2890;51.950;7.668;2024-02-14T11:59:25;32.37;;;23.57;;
5730;SDS011;2890;51.950;7.668;2024-02-14T12:01:51;32.67;;;24.67;;
5730;SDS011;2890;51.950;7.668;2024-02-14T12:04:19;31.80;;;25.30;;
5730;SDS011;2890;51.950;7.668;2024-02-14T12:06:47;31.93;;;24.07;;
5730;SDS011;2890;51.950;7.668;2024-02-14T12:09:14;28.37;;;24.63;;
5730;SDS011;2890;51.950;7.668;2024-02-14T12:11:41;29.70;;;23.47;;
5730;SDS011;2890;51.950;7.668;2024-02-14T12:14:08;29.70;;;23.80;;
5730;SDS011;2890;51.950;7.668;2024-02-14T12:16:36;33.40;;;24.00;;
5730;SDS011;2890;51.950;7.668;2024-02-14T12:19:05;32.53;;;24.40;;
5730;SDS011;2890;51.950;7.668;2024-02-14T12:21:33;32.20;;;23.60;;
5730;SDS011;2890;51.950;7.668;2024-02-14T12:24:02;31.37;;;22.70;;
5730;SDS011;2890;51.950;7.668;2024-02-14T12:26:30;25.87;;;22.37;;
5730;SDS011;2890;51.950;7.668;2024-02-14T12:28:57;30.63;;;23.07;;
5730;SDS011;2890;51.950;7.668;2024-02-14T12:31:23;22.07;;;19.70;;
5730;SDS011;2890;51.950;7.668;2024-02-14T12:33:50;26.57;;;20.80;;
5730;SDS011;2890;51.950;7.668;2024-02-14T12:36:19;26.33;;;20.83;;
5730;SDS011;2890;51.950;7.668;2024-02-14T12:38:46;25.03;;;21.00;;
5730;SDS011;2890;51.950;7.668;2024-02-14T12:41:14;31.63;;;19.97;;
5730;SDS011;2890;51.950;7.668;2024-02-14T12:43:41;26.93;;;18.37;;
5730;SDS011;2890;51.950;7.668;2024-02-14T12:46:07;27.33;;;19.50;;
5730;SDS011;2890;51.950;7.668;2024-02-14T12:48:34;26.37;;;19.60;;
5730;SDS011;2890;51.950;7.668;2024-02-14T12:51:00;23.80;;;19.40;;
5730;SDS011;2890;51.950;7.668;2024-02-14T12:53:27;22.47;;;18.37;;
5730;SDS011;2890;51.950;7.668;2024-02-14T12:55:53;22.30;;;18.77;;
5730;SDS011;2890;51.950;7.668;2024-02-14T12:58:21;22.87;;;20.00;;
5730;SDS011;2890;51.950;7.668;2024-02-14T13:00:48;24.87;;;19.10;;
5730;SDS011;2890;51.950;7.668;2024-02-14T13:03:14;21.57;;;19.27;;
5730;SDS011;2890;51.950;7.668;2024-02-14T13:05:41;21.07;;;17.50;;
5730;SDS011;2890;51.950;7.668;2024-02-14T13:08:07;20.60;;;18.47;;
5730;SDS011;2890;51.950;7.668;2024-02-14T13:10:36;23.77;;;17.23;;
5730;SDS011;2890;51.950;7.668;2024-02-14T13:13:02;20.30;;;17.50;;
5730;SDS011;2890;51.950;7.668;2024-02-14T13:15:31;21.17;;;17.07;;
5730;SDS011;2890;51.950;7.668;2024-02-14T13:17:57;19.13;;;17.13;;
5730;SDS011;2890;51.950;7.668;2024-02-14T13:20:25;22.87;;;17.50;;
5730;SDS011;2890;51.950;7.668;2024-02-14T13:22:51;23.00;;;18.30;;
5730;SDS011;2890;51.950;7.668;2024-02-14T13:25:18;22.20;;;17.80;;
5730;SDS011;2890;51.950;7.668;2024-02-14T13:27:44;21.77;;;15.80;;
5730;SDS011;2890;51.950;7.668;2024-02-14T13:30:11;23.03;;;16.90;;
5730;SDS011;2890;51.950;7.668;2024-02-14T13:32:39;20.30;;;15.40;;
5730;SDS011;2890;51.950;7.668;2024-02-14T13:35:06;19.60;;;17.50;;
5730;SDS011;2890;51.950;7.668;2024-02-14T13:37:33;17.30;;;15.50;;
5730;SDS011;2890;51.950;7.668;2024-02-14T13:40:01;18.97;;;15.03;;
5730;SDS011;2890;51.950;7.668;2024-02-14T13:42:29;18.20;;;16.30;;
5730;SDS011;2890;51.950;7.668;2024-02-14T13:44:55;15.13;;;13.63;;
5730;SDS011;2890;51.950;7.668;2024-02-14T13:47:22;18.23;;;15.23;;
5730;SDS011;2890;51.950;7.668;2024-02-14T13:49:51;18.63;;;13.87;;
5730;SDS011;2890;51.950;7.668;2024-02-14T13:52:17;22.93;;;14.93;;
5730;SDS011;2890;51.950;7.668;2024-02-14T13:54:45;16.93;;;13.70;;
5730;SDS011;2890;51.950;7.668;2024-02-14T13:57:11;15.37;;;13.93;;
5730;SDS011;2890;51.950;7.668;2024-02-14T13:59:38;16.27;;;13.27;;
5730;SDS011;2890;51.950;7.668;2024-02-14T14:02:04;15.27;;;13.63;;
5730;SDS011;2890;51.950;7.668;2024-02-14T14:04:32;17.10;;;14.47;;
5730;SDS011;2890;51.950;7.668;2024-02-14T14:07:02;22.10;;;14.90;;
5730;SDS011;2890;51.950;7.668;2024-02-14T14:09:29;14.67;;;13.17;;
5730;SDS011;2890;51.950;7.668;2024-02-14T14:11:57;15.37;;;13.60;;
5730;SDS011;2890;51.950;7.668;2024-02-14T14:14:23;15.70;;;13.97;;
5730;SDS011;2890;51.950;7.668;2024-02-14T14:16:51;15.57;;;13.90;;
5730;SDS011;2890;51.950;7.668;2024-02-14T14:19:18;15.80;;;14.30;;
5730;SDS011;2890;51.950;7.668;2024-02-14T14:21:44;15.80;;;13.70;;
5730;SDS011;2890;51.950;7.668;2024-02-14T14:24:12;15.07;;;13.47;;
5730;SDS011;2890;51.950;7.668;2024-02-14T14:26:39;14.73;;;13.40;;
5730;SDS011;2890;51.950;7.668;2024-02-14T14:29:05;14.80;;;13.20;;
5730;SDS011;2890;51.950;7.668;2024-02-14T14:31:33;12.50;;;11.50;;
5730;SDS011;2890;51.950;7.668;2024-02-14T14:34:00;15.20;;;13.10;;
5730;SDS011;2890;51.950;7.668;2024-02-14T14:36:27;14.40;;;13.10;;
5730;SDS011;2890;51.950;7.668;2024-02-14T14:38:53;12.33;;;11.13;;
5730;SDS011;2890;51.950;7.668;2024-02-14T14:41:21;13.77;;;12.40;;
5730;SDS011;2890;51.950;7.668;2024-02-14T14:43:48;14.33;;;13.10;;
5730;SDS011;2890;51.950;7.668;2024-02-14T14:46:14;15.73;;;13.07;;
5730;SDS011;2890;51.950;7.668;2024-02-14T14:48:41;14.70;;;13.13;;
5730;SDS011;2890;51.950;7.668;2024-02-14T14:51:08;16.80;;;13.60;;
5730;SDS011;2890;51.950;7.668;2024-02-14T14:53:34;16.23;;;13.30;;
5730;SDS011;2890;51.950;7.668;2024-02-14T14:56:01;17.13;;;15.30;;